Time;durP1;ratioP1;P1;durP2;ratioP2;P2;SDS_P1;SDS_P2;PMS_P1;PMS_P2;Temp;Humidity;BMP_temperature;BMP_pressure;BME280_temperature;BME280_humidity;BME280_pressure;Samples;Min_cycle;Max_cycle;Signal;HPM_P1;HPM_P2
2022/05/27 00:00:16;;;;;;;;;;;21.50;66.40;;;;;;4958999;29;19918;-67
2022/05/27 00:02:42;;;;;;;;;;;21.50;66.50;;;;;;4958720;29;20330;-63
2022/05/27 00:05:08;;;;;;;;;;;21.50;67.10;;;;;;4958654;29;19911;-76
2022/05/27 00:07:34;;;;;;;;;;;21.40;67.70;;;;;;4958469;29;19933;-76
2022/05/27 00:09:59;;;;;;;;;;;21.40;67.40;;;;;;4940042;29;20355;-75
2022/05/27 00:12:25;;;;;;;;;;;21.40;67.20;;;;;;4958317;29;20006;-72
2022/05/27 00:14:50;;;;;;;;;;;21.40;67.70;;;;;;4958575;29;19917;-75
2022/05/27 00:17:16;;;;;;;;;;;21.30;67.60;;;;;;4958318;29;19918;-76
2022/05/27 00:19:41;;;;;;;;;;;21.30;67.50;;;;;;4958307;29;20006;-75
2022/05/27 00:22:08;;;;;;;;;;;21.30;68.10;;;;;;4957995;29;19966;-74
2022/05/27 00:24:35;;;;;;;;;;;21.30;68.00;;;;;;4958022;29;20264;-75
2022/05/27 00:27:01;;;;;;;;;;;21.30;68.40;;;;;;4958237;29;19911;-74
2022/05/27 00:29:26;;;;;;;;;;;21.30;68.30;;;;;;4957976;29;20377;-67
2022/05/27 00:31:52;;;;;;;;;;;21.30;68.50;;;;;;4957978;29;19953;-72
2022/05/27 00:34:17;;;;;;;;;;;21.30;68.40;;;;;;4958241;29;20373;-62
2022/05/27 00:36:44;;;;;;;;;;;21.30;68.30;;;;;;4958366;29;19964;-72
2022/05/27 00:39:09;;;;;;;;;;;21.30;68.70;;;;;;4959289;29;20263;-71
2022/05/27 00:41:35;;;;;;;;;;;21.30;68.70;;;;;;4971642;29;19942;-68
2022/05/27 00:44:00;;;;;;;;;;;21.30;68.60;;;;;;4971344;29;19917;-64
2022/05/27 00:46:28;;;;;;;;;;;21.20;68.80;;;;;;4970588;29;19978;-70
2022/05/27 00:49:01;;;;;;;;;;;21.10;69.20;;;;;;4966009;29;19910;-64
2022/05/27 00:51:29;;;;;;;;;;;21.10;69.20;;;;;;4968932;29;20378;-64
2022/05/27 00:53:59;;;;;;;;;;;21.20;70.00;;;;;;4962822;29;19910;-66
2022/05/27 00:56:27;;;;;;;;;;;21.40;68.60;;;;;;4957917;29;19917;-62
2022/05/27 00:58:55;;;;;;;;;;;21.30;69.50;;;;;;4957840;29;19938;-64
2022/05/27 01:01:21;;;;;;;;;;;21.20;68.90;;;;;;4957370;29;19962;-64
2022/05/27 01:03:47;;;;;;;;;;;21.20;69.10;;;;;;4957258;29;19946;-67
2022/05/27 01:06:12;;;;;;;;;;;21.20;69.10;;;;;;4957528;29;19910;-63
2022/05/27 01:08:38;;;;;;;;;;;21.20;69.30;;;;;;4957456;29;19966;-66
2022/05/27 01:11:04;;;;;;;;;;;21.30;69.10;;;;;;4957357;29;20386;-66
2022/05/27 01:13:32;;;;;;;;;;;21.50;68.40;;;;;;4957604;29;19910;-74
2022/05/27 01:15:58;;;;;;;;;;;21.50;68.10;;;;;;4957517;29;20009;-74
2022/05/27 01:21:45;;;;;;;;;;;21.40;68.50;;;;;;4957277;28;20064;-71
2022/05/27 01:24:30;;;;;;;;;;;21.30;68.80;;;;;;4956630;29;19911;-71
2022/05/27 01:27:20;;;;;;;;;;;21.30;69.00;;;;;;4957167;29;20053;-65
2022/05/27 01:30:04;;;;;;;;;;;21.30;68.70;;;;;;4956843;29;19946;-67
2022/05/27 01:32:40;;;;;;;;;;;21.30;69.20;;;;;;4956882;29;19957;-64
2022/05/27 01:35:13;;;;;;;;;;;21.20;69.50;;;;;;4957014;29;19914;-69
2022/05/27 01:37:47;;;;;;;;;;;21.20;69.80;;;;;;4956605;29;19953;-71
2022/05/27 01:40:17;;;;;;;;;;;21.10;70.10;;;;;;4956976;29;19910;-67
2022/05/27 01:42:47;;;;;;;;;;;21.00;70.70;;;;;;4956666;29;19930;-65
2022/05/27 01:45:16;;;;;;;;;;;20.90;71.00;;;;;;4956801;29;19973;-71
2022/05/27 01:47:45;;;;;;;;;;;20.80;71.40;;;;;;4956711;29;19918;-67
2022/05/27 01:50:14;;;;;;;;;;;20.80;71.80;;;;;;4956761;29;19940;-70
2022/05/27 01:53:12;;;;;;;;;;;20.90;71.70;;;;;;4956450;29;19914;-68
2022/05/27 01:55:40;;;;;;;;;;;20.90;71.30;;;;;;4913943;29;19911;-70
2022/05/27 01:58:09;;;;;;;;;;;21.00;70.90;;;;;;4956393;29;19914;-67
2022/05/27 02:00:35;;;;;;;;;;;21.00;71.10;;;;;;4956509;29;19910;-68
2022/05/27 02:03:05;;;;;;;;;;;20.90;71.30;;;;;;4938837;29;20290;-69
2022/05/27 02:05:37;;;;;;;;;;;20.80;72.40;;;;;;4939110;29;20278;-75
2022/05/27 02:08:03;;;;;;;;;;;20.80;71.90;;;;;;4956853;29;20324;-66
2022/05/27 02:10:40;;;;;;;;;;;20.70;72.20;;;;;;4956503;29;19960;-75
2022/05/27 02:13:24;;;;;;;;;;;20.80;72.20;;;;;;4956145;29;19914;-76
2022/05/27 02:15:51;;;;;;;;;;;20.80;72.00;;;;;;4956314;29;20275;-74
2022/05/27 02:18:22;;;;;;;;;;;20.80;71.90;;;;;;4956155;29;19915;-74
2022/05/27 02:20:59;;;;;;;;;;;20.80;72.10;;;;;;4955941;29;20259;-75
2022/05/27 02:23:27;;;;;;;;;;;20.70;72.10;;;;;;4956101;29;19914;-68
2022/05/27 02:25:54;;;;;;;;;;;20.80;71.60;;;;;;4956073;29;19911;-62
2022/05/27 02:28:32;;;;;;;;;;;20.80;71.80;;;;;;4955736;29;19910;-65
2022/05/27 02:31:01;;;;;;;;;;;20.90;71.60;;;;;;4955897;29;19918;-69
2022/05/27 02:36:25;;;;;;;;;;;21.00;71.30;;;;;;4956135;29;19946;-65
2022/05/27 02:38:51;;;;;;;;;;;20.90;71.80;;;;;;4956039;29;19911;-64
2022/05/27 02:41:16;;;;;;;;;;;20.80;72.00;;;;;;4955437;29;19918;-71
2022/05/27 02:44:00;;;;;;;;;;;20.70;72.50;;;;;;4956081;29;19915;-72
2022/05/27 02:46:44;;;;;;;;;;;20.70;72.40;;;;;;4955638;29;20349;-75
2022/05/27 02:49:17;;;;;;;;;;;20.70;72.60;;;;;;4955907;29;19916;-74
2022/05/27 02:51:52;;;;;;;;;;;20.80;73.30;;;;;;4954899;29;20452;-71
2022/05/27 02:54:21;;;;;;;;;;;20.70;72.70;;;;;;4955808;29;19965;-75
2022/05/27 02:56:48;;;;;;;;;;;20.70;72.80;;;;;;4938444;29;19914;-74
2022/05/27 02:59:16;;;;;;;;;;;20.70;72.90;;;;;;4955496;29;19954;-75
2022/05/27 03:01:41;;;;;;;;;;;20.60;73.10;;;;;;4955404;29;20389;-75
2022/05/27 03:04:07;;;;;;;;;;;20.60;73.40;;;;;;4955659;29;19953;-75
2022/05/27 03:06:36;;;;;;;;;;;20.50;73.60;;;;;;4956023;29;20410;-75
2022/05/27 03:09:05;;;;;;;;;;;20.60;73.40;;;;;;4955754;29;19914;-65
2022/05/27 03:11:42;;;;;;;;;;;20.70;73.20;;;;;;4955492;29;19917;-64
2022/05/27 03:14:46;;;;;;;;;;;20.60;74.00;;;;;;4955480;29;20346;-63
2022/05/27 03:17:30;;;;;;;;;;;20.60;73.10;;;;;;4896255;29;19922;-74
2022/05/27 03:19:59;;;;;;;;;;;20.60;73.30;;;;;;4896674;29;19915;-75
2022/05/27 03:22:30;;;;;;;;;;;20.70;73.10;;;;;;4896280;29;20373;-75
2022/05/27 03:25:07;;;;;;;;;;;20.70;72.50;;;;;;4896446;29;19934;-74
2022/05/27 03:27:36;;;;;;;;;;;20.70;72.30;;;;;;4896439;29;19962;-73
2022/05/27 03:30:14;;;;;;;;;;;20.80;72.00;;;;;;4896361;29;19964;-74
2022/05/27 03:32:56;;;;;;;;;;;20.70;72.20;;;;;;4897034;29;19911;-75
2022/05/27 03:35:57;;;;;;;;;;;20.70;73.00;;;;;;4897324;29;19911;-75
2022/05/27 03:38:34;;;;;;;;;;;20.50;73.40;;;;;;4859725;29;20337;-74
2022/05/27 03:41:11;;;;;;;;;;;20.50;73.70;;;;;;4891106;29;19912;-75
2022/05/27 03:43:38;;;;;;;;;;;20.50;73.90;;;;;;4896551;29;19916;-74
2022/05/27 03:46:04;;;;;;;;;;;20.50;73.90;;;;;;4899898;29;19924;-74
2022/05/27 03:48:32;;;;;;;;;;;20.50;73.70;;;;;;4942796;29;19915;-74
2022/05/27 03:50:59;;;;;;;;;;;20.70;73.30;;;;;;4958703;29;20294;-74
2022/05/27 03:54:03;;;;;;;;;;;20.70;72.90;;;;;;4958612;29;19949;-74
2022/05/27 03:56:11;;;;;;;;;;;20.80;72.60;;;;;;4958419;29;19911;-66
2022/05/27 03:58:36;;;;;;;;;;;20.80;72.90;;;;;;4958756;29;20375;-64
2022/05/27 04:01:02;;;;;;;;;;;20.80;73.10;;;;;;4958517;29;20006;-61
2022/05/27 04:03:27;;;;;;;;;;;20.80;73.20;;;;;;4958490;29;19942;-66
2022/05/27 04:05:53;;;;;;;;;;;20.80;73.30;;;;;;4957162;29;19911;-76
2022/05/27 04:08:18;;;;;;;;;;;20.80;73.30;;;;;;4958446;29;19911;-76
2022/05/27 04:10:44;;;;;;;;;;;20.90;72.90;;;;;;4958804;29;19969;-64
2022/05/27 04:13:09;;;;;;;;;;;20.90;73.30;;;;;;4958365;29;19917;-69
2022/05/27 04:15:35;;;;;;;;;;;20.90;73.70;;;;;;4958269;29;19910;-66
2022/05/27 04:18:00;;;;;;;;;;;20.90;74.20;;;;;;4958303;29;19959;-65
2022/05/27 04:20:26;;;;;;;;;;;20.90;74.40;;;;;;4958146;29;19915;-67
2022/05/27 04:22:55;;;;;;;;;;;21.00;74.10;;;;;;4957944;29;19958;-66
2022/05/27 04:25:20;;;;;;;;;;;21.10;73.60;;;;;;4958227;29;19954;-64
2022/05/27 04:27:46;;;;;;;;;;;21.20;73.10;;;;;;4958148;29;19958;-72
2022/05/27 04:30:12;;;;;;;;;;;21.30;73.20;;;;;;4957928;29;19910;-62
2022/05/27 04:32:38;;;;;;;;;;;21.30;73.20;;;;;;4958026;29;19911;-63
2022/05/27 04:35:04;;;;;;;;;;;21.30;73.80;;;;;;4957901;29;19946;-75
2022/05/27 04:37:30;;;;;;;;;;;21.30;74.10;;;;;;4958013;29;19911;-75
2022/05/27 04:39:56;;;;;;;;;;;21.40;73.60;;;;;;4957888;29;19914;-75
2022/05/27 04:42:21;;;;;;;;;;;21.40;73.90;;;;;;4957828;29;20029;-73
2022/05/27 04:44:47;;;;;;;;;;;21.30;75.50;;;;;;4957823;29;19910;-73
2022/05/27 04:47:12;;;;;;;;;;;21.40;75.10;;;;;;4957728;29;19933;-74
2022/05/27 04:49:54;;;;;;;;;;;21.40;75.10;;;;;;4957544;29;19915;-74
2022/05/27 04:52:21;;;;;;;;;;;21.40;75.30;;;;;;4957601;29;20060;-72
2022/05/27 04:54:47;;;;;;;;;;;21.50;75.40;;;;;;4957559;29;19922;-75
2022/05/27 04:57:14;;;;;;;;;;;21.50;75.60;;;;;;4957127;28;19962;-74
2022/05/27 04:59:40;;;;;;;;;;;21.50;75.60;;;;;;4957545;29;19910;-63
2022/05/27 05:02:06;;;;;;;;;;;21.50;75.60;;;;;;4957120;29;19923;-62
2022/05/27 05:04:32;;;;;;;;;;;21.60;75.40;;;;;;4957386;29;19910;-62
2022/05/27 05:07:01;;;;;;;;;;;21.70;75.00;;;;;;4957397;29;19910;-62
2022/05/27 05:09:26;;;;;;;;;;;21.80;75.50;;;;;;4957359;29;19914;-69
2022/05/27 05:11:52;;;;;;;;;;;21.90;74.90;;;;;;4957342;29;19918;-67
2022/05/27 05:14:17;;;;;;;;;;;22.00;74.70;;;;;;4957046;29;20431;-70
2022/05/27 05:16:43;;;;;;;;;;;22.10;74.70;;;;;;4957352;29;20001;-73
2022/05/27 05:19:08;;;;;;;;;;;22.20;73.20;;;;;;4957043;29;20366;-65
2022/05/27 05:21:34;;;;;;;;;;;22.30;72.80;;;;;;4956931;29;19921;-68
2022/05/27 05:23:59;;;;;;;;;;;22.40;72.70;;;;;;4939562;29;19921;-70
2022/05/27 05:26:25;;;;;;;;;;;22.50;72.70;;;;;;4957301;29;19910;-63
2022/05/27 05:28:50;;;;;;;;;;;22.60;72.00;;;;;;4957109;29;20347;-68
2022/05/27 05:31:16;;;;;;;;;;;22.70;72.00;;;;;;4956866;29;20274;-65
2022/05/27 05:33:43;;;;;;;;;;;22.80;70.80;;;;;;4959594;29;19915;-64
2022/05/27 05:36:09;;;;;;;;;;;22.80;70.60;;;;;;4959388;29;20001;-66
2022/05/27 05:38:34;;;;;;;;;;;22.80;71.90;;;;;;4960140;29;20374;-69
2022/05/27 05:41:00;;;;;;;;;;;22.80;71.40;;;;;;4959626;29;20004;-67
2022/05/27 05:43:25;;;;;;;;;;;22.90;69.60;;;;;;4959288;29;19944;-61
2022/05/27 05:45:51;;;;;;;;;;;23.00;68.20;;;;;;4958660;29;19923;-63
2022/05/27 05:48:16;;;;;;;;;;;23.20;68.20;;;;;;4958199;29;19933;-65
2022/05/27 05:50:42;;;;;;;;;;;23.40;68.40;;;;;;4956829;29;19914;-64
2022/05/27 05:53:07;;;;;;;;;;;23.60;67.40;;;;;;4956222;29;20007;-63
2022/05/27 05:55:35;;;;;;;;;;;23.80;66.50;;;;;;4956432;29;19953;-68
2022/05/27 05:58:02;;;;;;;;;;;23.80;66.10;;;;;;4956354;29;20013;-64
2022/05/27 06:00:28;;;;;;;;;;;24.00;65.30;;;;;;4956040;29;19958;-66
2022/05/27 06:02:54;;;;;;;;;;;24.10;64.50;;;;;;4955691;29;19922;-70
2022/05/27 06:05:20;;;;;;;;;;;24.10;63.90;;;;;;4956096;29;20006;-66
2022/05/27 06:07:46;;;;;;;;;;;24.10;63.90;;;;;;4954746;28;19947;-68
2022/05/27 06:10:13;;;;;;;;;;;24.10;64.00;;;;;;4956060;29;19910;-68
2022/05/27 06:12:39;;;;;;;;;;;24.20;64.50;;;;;;4955925;29;19959;-69
2022/05/27 06:15:06;;;;;;;;;;;24.40;64.30;;;;;;4955813;29;20327;-71
2022/05/27 06:17:33;;;;;;;;;;;24.60;63.80;;;;;;4955995;29;19911;-72
2022/05/27 06:19:59;;;;;;;;;;;24.90;62.50;;;;;;4938304;29;19911;-72
2022/05/27 06:22:24;;;;;;;;;;;25.10;61.00;;;;;;4955797;29;20426;-73
2022/05/27 06:24:50;;;;;;;;;;;25.40;59.80;;;;;;4955886;29;19910;-73
2022/05/27 06:27:15;;;;;;;;;;;25.60;59.20;;;;;;4955495;29;19910;-69
2022/05/27 06:35:26;;;;;;;;;;;25.40;58.70;;;;;;4950668;29;19921;-69
2022/05/27 06:37:52;;;;;;;;;;;25.40;59.00;;;;;;4955622;29;19910;-71
2022/05/27 06:40:18;;;;;;;;;;;25.20;59.20;;;;;;4938247;29;19914;-69
2022/05/27 06:42:43;;;;;;;;;;;25.10;59.60;;;;;;4955478;29;20414;-68
2022/05/27 06:45:11;;;;;;;;;;;25.00;59.60;;;;;;4955265;29;20331;-64
2022/05/27 06:47:37;;;;;;;;;;;25.30;59.20;;;;;;4955689;29;19919;-66
2022/05/27 06:50:03;;;;;;;;;;;25.60;58.80;;;;;;4955400;29;20370;-71
2022/05/27 06:52:30;;;;;;;;;;;25.90;57.90;;;;;;4955449;29;19911;-68
2022/05/27 06:54:55;;;;;;;;;;;26.20;57.30;;;;;;4956864;29;19966;-66
2022/05/27 06:57:21;;;;;;;;;;;26.60;56.60;;;;;;4958197;29;19911;-66
2022/05/27 06:59:46;;;;;;;;;;;26.90;56.40;;;;;;4958348;29;19974;-67
2022/05/27 07:02:12;;;;;;;;;;;27.20;55.50;;;;;;4954887;29;20302;-65
2022/05/27 07:04:38;;;;;;;;;;;27.30;55.00;;;;;;4946453;29;19911;-67
2022/05/27 07:07:04;;;;;;;;;;;27.50;54.70;;;;;;4946911;29;19993;-68
2022/05/27 07:09:35;;;;;;;;;;;27.60;54.30;;;;;;4945999;29;19911;-70
2022/05/27 07:12:01;;;;;;;;;;;27.70;54.10;;;;;;4942487;29;19998;-65
2022/05/27 07:14:27;;;;;;;;;;;27.80;53.90;;;;;;4944584;29;19918;-71
2022/05/27 07:16:53;;;;;;;;;;;27.70;53.70;;;;;;4943318;29;19915;-70
2022/05/27 07:19:19;;;;;;;;;;;27.70;53.90;;;;;;4947357;29;19951;-71
2022/05/27 07:21:45;;;;;;;;;;;27.70;54.40;;;;;;4947572;29;19915;-70
2022/05/27 07:24:13;;;;;;;;;;;27.70;54.50;;;;;;4949109;29;19914;-71
2022/05/27 07:26:39;;;;;;;;;;;27.80;54.60;;;;;;4949664;29;20285;-71
2022/05/27 07:29:05;;;;;;;;;;;27.90;54.30;;;;;;4947742;29;19911;-69
2022/05/27 07:31:32;;;;;;;;;;;28.10;54.20;;;;;;4955880;29;19910;-70
2022/05/27 07:33:57;;;;;;;;;;;28.10;54.30;;;;;;4958452;29;19982;-70
2022/05/27 07:36:23;;;;;;;;;;;28.20;53.60;;;;;;4947469;29;19918;-72
2022/05/27 07:38:51;;;;;;;;;;;28.20;53.40;;;;;;4948611;29;19966;-71
2022/05/27 07:41:17;;;;;;;;;;;28.10;53.90;;;;;;4948957;29;20381;-71
2022/05/27 07:43:43;;;;;;;;;;;28.20;54.20;;;;;;4947879;29;19915;-69
2022/05/27 07:46:09;;;;;;;;;;;28.20;54.70;;;;;;4948985;29;19927;-71
2022/05/27 07:48:34;;;;;;;;;;;28.20;54.50;;;;;;4944629;29;20013;-67
2022/05/27 07:51:00;;;;;;;;;;;28.10;54.50;;;;;;4946552;29;19922;-70
2022/05/27 07:53:25;;;;;;;;;;;27.90;54.80;;;;;;4948042;29;19918;-69
2022/05/27 07:55:51;;;;;;;;;;;27.90;55.40;;;;;;4947915;29;20001;-71
2022/05/27 07:58:16;;;;;;;;;;;27.90;55.40;;;;;;4948644;29;19922;-69
2022/05/27 08:00:42;;;;;;;;;;;27.90;55.50;;;;;;4937969;29;19922;-71
2022/05/27 08:03:07;;;;;;;;;;;27.80;55.70;;;;;;4938517;29;19918;-71
2022/05/27 08:05:33;;;;;;;;;;;27.80;55.90;;;;;;4939025;29;19917;-69
2022/05/27 08:08:00;;;;;;;;;;;27.70;55.80;;;;;;4921864;29;20030;-70
2022/05/27 08:10:27;;;;;;;;;;;27.70;56.20;;;;;;4939037;29;19990;-70
2022/05/27 08:12:53;;;;;;;;;;;27.60;56.30;;;;;;4938928;29;19910;-72
2022/05/27 08:15:19;;;;;;;;;;;27.60;56.70;;;;;;4938718;29;19922;-69
2022/05/27 08:17:44;;;;;;;;;;;27.60;57.00;;;;;;4921863;29;19911;-70
2022/05/27 08:20:11;;;;;;;;;;;27.60;56.80;;;;;;4939110;29;20352;-70
2022/05/27 08:22:37;;;;;;;;;;;27.70;56.80;;;;;;4938755;29;20312;-71
2022/05/27 08:25:02;;;;;;;;;;;27.80;57.00;;;;;;4939119;29;19950;-69
2022/05/27 08:27:28;;;;;;;;;;;27.80;56.80;;;;;;4939122;29;20360;-71
2022/05/27 08:29:54;;;;;;;;;;;27.90;56.90;;;;;;4939459;29;19918;-70
2022/05/27 08:32:19;;;;;;;;;;;28.00;56.30;;;;;;4938918;29;20369;-69
2022/05/27 08:40:23;;;;;;;;;;;27.90;56.10;;;;;;4939347;29;19918;-71
2022/05/27 08:43:07;;;;;;;;;;;27.90;56.00;;;;;;4938957;29;19919;-71
2022/05/27 08:45:36;;;;;;;;;;;27.90;56.00;;;;;;4938725;29;19929;-70
2022/05/27 08:48:09;;;;;;;;;;;27.80;56.10;;;;;;4943375;29;20009;-70
2022/05/27 08:50:35;;;;;;;;;;;27.70;56.40;;;;;;4923026;29;20283;-70
2022/05/27 08:53:16;;;;;;;;;;;27.80;56.20;;;;;;4938340;29;19911;-72
2022/05/27 09:01:20;;;;;;;;;;;27.90;55.90;;;;;;4938201;29;20058;-70
2022/05/27 09:03:48;;;;;;;;;;;27.80;56.70;;;;;;4938327;29;19915;-71
2022/05/27 09:06:15;;;;;;;;;;;27.80;55.70;;;;;;4938284;29;20316;-71
2022/05/27 09:08:40;;;;;;;;;;;27.70;55.80;;;;;;4921524;29;20290;-72
2022/05/27 09:11:22;;;;;;;;;;;27.90;56.30;;;;;;4938499;29;19915;-70
2022/05/27 09:14:17;;;;;;;;;;;27.90;55.90;;;;;;4938288;29;19911;-73
2022/05/27 09:16:48;;;;;;;;;;;27.90;55.60;;;;;;4925925;29;19915;-71
2022/05/27 09:19:25;;;;;;;;;;;27.70;55.50;;;;;;4937790;29;19911;-69
2022/05/27 09:21:51;;;;;;;;;;;27.70;54.80;;;;;;4937506;29;20021;-71
2022/05/27 09:24:23;;;;;;;;;;;27.70;55.20;;;;;;4937671;29;19915;-68
2022/05/27 09:26:54;;;;;;;;;;;27.60;55.40;;;;;;4937570;29;19958;-70
2022/05/27 09:29:39;;;;;;;;;;;27.50;56.00;;;;;;4937346;29;20279;-72
2022/05/27 09:32:14;;;;;;;;;;;27.60;55.10;;;;;;4937559;29;19962;-69
2022/05/27 09:34:41;;;;;;;;;;;27.50;55.20;;;;;;4937519;29;20049;-70
2022/05/27 09:37:08;;;;;;;;;;;27.50;55.50;;;;;;4937283;29;19943;-71
2022/05/27 09:39:33;;;;;;;;;;;27.40;55.00;;;;;;4937237;29;19918;-70
2022/05/27 09:42:24;;;;;;;;;;;27.40;55.10;;;;;;4937232;29;19919;-70
2022/05/27 09:44:54;;;;;;;;;;;27.40;55.20;;;;;;4936873;29;19911;-71
2022/05/27 09:47:21;;;;;;;;;;;27.20;55.50;;;;;;4937415;29;19974;-71
2022/05/27 09:49:50;;;;;;;;;;;27.30;54.60;;;;;;4937318;29;20460;-73
2022/05/27 09:52:16;;;;;;;;;;;27.20;54.60;;;;;;4937232;29;19910;-69
2022/05/27 09:54:50;;;;;;;;;;;27.20;55.20;;;;;;4937166;29;20328;-72
2022/05/27 09:57:25;;;;;;;;;;;27.20;55.20;;;;;;4937205;29;19911;-69
2022/05/27 09:59:58;;;;;;;;;;;27.10;54.90;;;;;;4937251;29;19945;-70
2022/05/27 10:02:27;;;;;;;;;;;27.10;56.10;;;;;;4919767;29;19945;-68
2022/05/27 10:04:53;;;;;;;;;;;27.10;55.20;;;;;;4936831;29;19915;-68
2022/05/27 10:07:25;;;;;;;;;;;27.00;55.00;;;;;;4936923;29;20268;-73
2022/05/27 10:09:51;;;;;;;;;;;27.10;55.20;;;;;;4936880;29;20356;-70
2022/05/27 10:12:30;;;;;;;;;;;27.10;55.60;;;;;;4936655;29;19944;-72
2022/05/27 10:14:56;;;;;;;;;;;27.10;56.00;;;;;;4936881;29;19915;-68
2022/05/27 10:17:31;;;;;;;;;;;27.20;54.80;;;;;;4936763;29;19978;-71
2022/05/27 10:20:17;;;;;;;;;;;27.30;54.60;;;;;;4937080;29;19937;-70
2022/05/27 10:22:55;;;;;;;;;;;27.30;53.50;;;;;;4936450;29;20280;-68
2022/05/27 10:25:27;;;;;;;;;;;27.20;54.00;;;;;;4936718;29;19957;-72
2022/05/27 10:27:53;;;;;;;;;;;27.20;54.10;;;;;;4936939;29;19946;-72
2022/05/27 10:30:23;;;;;;;;;;;27.30;53.80;;;;;;4936945;29;19943;-70
2022/05/27 10:32:49;;;;;;;;;;;27.30;54.00;;;;;;4936673;29;19918;-70
2022/05/27 10:35:21;;;;;;;;;;;27.30;54.20;;;;;;4936891;29;20363;-73
2022/05/27 10:37:49;;;;;;;;;;;27.20;53.80;;;;;;4938909;29;19922;-71
2022/05/27 10:40:35;;;;;;;;;;;27.30;53.40;;;;;;4938309;29;20290;-70
2022/05/27 10:43:11;;;;;;;;;;;27.20;53.20;;;;;;4939280;29;19923;-72
2022/05/27 10:45:55;;;;;;;;;;;27.20;52.90;;;;;;4939661;29;20347;-70
2022/05/27 10:48:44;;;;;;;;;;;27.20;52.10;;;;;;4940022;29;19958;-67
2022/05/27 10:51:28;;;;;;;;;;;27.20;52.50;;;;;;4930646;29;20303;-71
2022/05/27 10:54:00;;;;;;;;;;;27.20;52.60;;;;;;4936041;29;20005;-68
2022/05/27 10:56:38;;;;;;;;;;;27.30;53.50;;;;;;4936170;29;19940;-71
2022/05/27 11:02:17;;;;;;;;;;;27.30;52.70;;;;;;4935688;29;20010;-66
2022/05/27 11:04:49;;;;;;;;;;;27.30;52.80;;;;;;4936589;29;20336;-69
2022/05/27 11:07:14;;;;;;;;;;;27.40;51.70;;;;;;4935659;29;19915;-66
2022/05/27 11:09:43;;;;;;;;;;;27.40;52.90;;;;;;4936038;29;19958;-64
2022/05/27 11:12:20;;;;;;;;;;;27.40;52.40;;;;;;4935973;29;20240;-68
2022/05/27 11:17:51;;;;;;;;;;;27.50;51.70;;;;;;4935483;29;19918;-64
2022/05/27 11:20:18;;;;;;;;;;;27.40;51.10;;;;;;4935793;29;20406;-65
2022/05/27 11:22:51;;;;;;;;;;;27.30;51.30;;;;;;4935554;29;19926;-68
2022/05/27 11:25:19;;;;;;;;;;;27.30;52.40;;;;;;4935801;29;19918;-63
2022/05/27 11:27:44;;;;;;;;;;;27.30;52.80;;;;;;4936948;29;20363;-66
2022/05/27 11:30:18;;;;;;;;;;;27.30;53.30;;;;;;4935240;29;19918;-63
2022/05/27 11:32:50;;;;;;;;;;;27.30;52.60;;;;;;4934890;29;19960;-62
2022/05/27 11:35:27;;;;;;;;;;;27.40;52.10;;;;;;4934932;29;19911;-62
2022/05/27 11:37:59;;;;;;;;;;;27.40;52.20;;;;;;4934749;29;20279;-61
2022/05/27 11:40:30;;;;;;;;;;;27.40;53.00;;;;;;4934749;29;19927;-62
2022/05/27 11:43:14;;;;;;;;;;;27.40;52.70;;;;;;4935306;29;19919;-63
2022/05/27 11:45:45;;;;;;;;;;;27.50;52.30;;;;;;4935448;29;19923;-66
2022/05/27 11:48:15;;;;;;;;;;;27.60;52.30;;;;;;4935470;29;19911;-64
2022/05/27 11:50:59;;;;;;;;;;;27.60;52.30;;;;;;4935139;29;19911;-65
2022/05/27 11:53:36;;;;;;;;;;;27.60;52.40;;;;;;4935500;29;19938;-66
2022/05/27 11:56:08;;;;;;;;;;;27.60;52.30;;;;;;4935342;29;19910;-62
2022/05/27 11:58:37;;;;;;;;;;;27.60;51.40;;;;;;4935478;29;19911;-70
2022/05/27 12:01:05;;;;;;;;;;;27.50;51.20;;;;;;4935155;29;19918;-65
2022/05/27 12:03:38;;;;;;;;;;;27.50;51.20;;;;;;4935077;29;19966;-65
2022/05/27 12:06:06;;;;;;;;;;;27.50;51.50;;;;;;4936184;29;19942;-64
2022/05/27 12:08:37;;;;;;;;;;;27.60;51.20;;;;;;4938631;29;20339;-62
2022/05/27 12:11:21;;;;;;;;;;;27.60;50.50;;;;;;4938574;29;20316;-66
2022/05/27 12:13:47;;;;;;;;;;;27.60;50.80;;;;;;4938521;29;19926;-68
2022/05/27 12:16:29;;;;;;;;;;;27.60;49.70;;;;;;4938759;29;19911;-74
2022/05/27 12:18:56;;;;;;;;;;;27.50;49.00;;;;;;4938421;29;19911;-67
2022/05/27 12:21:24;;;;;;;;;;;27.50;50.50;;;;;;4938241;29;20005;-66
2022/05/27 12:23:55;;;;;;;;;;;27.60;48.80;;;;;;4938425;29;19919;-63
2022/05/27 12:26:27;;;;;;;;;;;27.60;49.40;;;;;;4938213;29;20034;-69
2022/05/27 12:28:52;;;;;;;;;;;27.60;47.10;;;;;;4937790;29;20286;-72
2022/05/27 12:31:18;;;;;;;;;;;27.60;46.50;;;;;;4938000;29;19918;-71
2022/05/27 12:33:44;;;;;;;;;;;27.60;47.80;;;;;;4938266;29;19911;-67
2022/05/27 12:36:17;;;;;;;;;;;27.50;45.10;;;;;;4937969;29;19918;-62
2022/05/27 12:38:44;;;;;;;;;;;27.50;47.90;;;;;;4938184;29;19921;-62
2022/05/27 12:41:12;;;;;;;;;;;27.60;47.90;;;;;;4937893;29;19919;-64
2022/05/27 12:43:38;;;;;;;;;;;27.60;47.90;;;;;;4937886;29;19915;-66
2022/05/27 12:46:03;;;;;;;;;;;27.60;46.00;;;;;;4937809;29;19929;-63
2022/05/27 12:48:40;;;;;;;;;;;27.60;46.30;;;;;;4937971;29;19911;-69
2022/05/27 12:51:25;;;;;;;;;;;27.60;45.50;;;;;;4938068;29;19910;-70
2022/05/27 12:53:57;;;;;;;;;;;27.60;44.30;;;;;;4937353;29;19966;-64
2022/05/27 13:02:19;;;;;;;;;;;27.50;44.70;;;;;;4938151;29;19957;-60
2022/05/27 13:04:46;;;;;;;;;;;27.50;46.00;;;;;;4938097;29;19997;-70
2022/05/27 13:07:12;;;;;;;;;;;27.50;45.10;;;;;;4937947;29;20009;-65
2022/05/27 13:09:42;;;;;;;;;;;27.50;46.20;;;;;;4938102;29;19939;-60
2022/05/27 13:12:10;;;;;;;;;;;27.40;45.90;;;;;;4937625;29;20027;-60
2022/05/27 13:14:36;;;;;;;;;;;27.40;48.00;;;;;;4920978;29;19964;-66
2022/05/27 13:17:08;;;;;;;;;;;27.40;48.50;;;;;;4937263;29;19949;-63
2022/05/27 13:19:44;;;;;;;;;;;27.50;48.60;;;;;;4937650;29;19911;-63
2022/05/27 13:22:35;;;;;;;;;;;27.50;48.50;;;;;;4944936;29;19986;-65
2022/05/27 13:25:19;;;;;;;;;;;27.50;48.50;;;;;;4943771;29;19911;-63
2022/05/27 13:27:46;;;;;;;;;;;27.50;46.30;;;;;;4943872;29;19911;-64
2022/05/27 13:30:14;;;;;;;;;;;27.60;46.70;;;;;;4946161;29;20288;-70
2022/05/27 13:32:48;;;;;;;;;;;27.50;46.70;;;;;;4947258;29;19910;-63
2022/05/27 13:35:15;;;;;;;;;;;27.60;47.60;;;;;;4939565;29;19969;-73
2022/05/27 13:37:40;;;;;;;;;;;27.60;46.80;;;;;;4947138;29;20384;-69
2022/05/27 13:40:10;;;;;;;;;;;27.50;47.70;;;;;;4945435;29;19956;-69
2022/05/27 13:42:41;;;;;;;;;;;27.50;47.10;;;;;;4945954;29;19918;-70
2022/05/27 13:45:10;;;;;;;;;;;27.50;47.50;;;;;;4944557;29;20393;-69
2022/05/27 13:47:37;;;;;;;;;;;27.50;46.60;;;;;;4937020;29;19956;-62
2022/05/27 13:50:02;;;;;;;;;;;27.60;47.40;;;;;;4937256;29;19915;-62
2022/05/27 13:52:36;;;;;;;;;;;27.60;47.80;;;;;;4937231;29;20023;-64
2022/05/27 13:55:06;;;;;;;;;;;27.60;46.50;;;;;;4937020;29;19915;-67
2022/05/27 13:57:32;;;;;;;;;;;27.60;47.70;;;;;;4919693;29;19911;-68
2022/05/27 13:59:59;;;;;;;;;;;27.50;48.60;;;;;;4936917;29;19910;-68
2022/05/27 14:02:34;;;;;;;;;;;27.50;46.60;;;;;;4919370;29;19923;-66
2022/05/27 14:05:03;;;;;;;;;;;27.50;47.20;;;;;;4936777;29;20253;-67
2022/05/27 14:07:36;;;;;;;;;;;27.50;46.60;;;;;;4945017;29;20005;-64
2022/05/27 14:10:04;;;;;;;;;;;27.60;48.20;;;;;;4944736;29;19917;-64
2022/05/27 14:12:34;;;;;;;;;;;27.60;48.40;;;;;;4946301;29;19946;-63
2022/05/27 14:15:03;;;;;;;;;;;27.60;47.60;;;;;;4946322;29;19910;-67
2022/05/27 14:17:36;;;;;;;;;;;27.60;48.00;;;;;;4936645;29;19914;-71
2022/05/27 14:20:03;;;;;;;;;;;27.50;48.70;;;;;;4936767;29;19967;-72
2022/05/27 14:22:44;;;;;;;;;;;27.60;48.50;;;;;;4936525;29;20434;-70
2022/05/27 14:25:16;;;;;;;;;;;27.60;48.70;;;;;;4936196;29;19962;-73
2022/05/27 14:28:01;;;;;;;;;;;27.60;48.60;;;;;;4938056;29;19915;-68
2022/05/27 14:30:33;;;;;;;;;;;27.60;46.30;;;;;;4945508;29;19922;-72
2022/05/27 14:32:59;;;;;;;;;;;27.60;46.80;;;;;;4945645;29;19911;-66
2022/05/27 14:35:25;;;;;;;;;;;27.60;47.20;;;;;;4944458;29;20377;-68
2022/05/27 14:37:51;;;;;;;;;;;27.60;48.60;;;;;;4946239;29;20386;-67
2022/05/27 14:40:19;;;;;;;;;;;27.60;49.50;;;;;;4948272;29;19949;-61
2022/05/27 14:42:46;;;;;;;;;;;27.60;50.30;;;;;;4955357;29;19930;-64
2022/05/27 14:45:34;;;;;;;;;;;27.60;50.50;;;;;;4945212;29;20002;-70
2022/05/27 14:48:15;;;;;;;;;;;27.60;51.10;;;;;;4945535;29;19948;-72
2022/05/27 14:50:40;;;;;;;;;;;27.60;53.40;;;;;;4945822;29;19966;-72
2022/05/27 14:53:06;;;;;;;;;;;27.60;52.10;;;;;;4944349;29;20414;-74
2022/05/27 14:55:36;;;;;;;;;;;27.60;52.30;;;;;;4945512;29;20434;-73
2022/05/27 14:58:03;;;;;;;;;;;27.60;50.80;;;;;;4946309;29;19918;-68
2022/05/27 15:00:31;;;;;;;;;;;27.70;49.70;;;;;;4944458;29;20311;-68
2022/05/27 15:03:01;;;;;;;;;;;27.60;49.20;;;;;;4944676;29;20400;-70
2022/05/27 15:05:29;;;;;;;;;;;27.60;49.70;;;;;;4941957;29;19911;-69